sensor_id;sensor_type;location;lat;lon;timestamp;pressure;altitude;pressure_sealevel;temperature;humidity
50250;BME280;36133;42.522;27.456;2023-03-01T00:01:46;101985.53;;;8.17;69.16
50250;BME280;36133;42.522;27.456;2023-03-01T00:04:11;102183.34;;;9.58;68.42
50250;BME280;36133;42.522;27.456;2023-03-01T00:06:37;102035.69;;;8.86;67.68
50250;BME280;36133;42.522;27.456;2023-03-01T00:09:03;102216.44;;;9.50;69.40
50250;BME280;36133;42.522;27.456;2023-03-01T00:11:30;102145.78;;;9.37;67.60
50250;BME280;36133;42.522;27.456;2023-03-01T00:13:58;102169.78;;;9.11;69.70
50250;BME280;36133;42.522;27.456;2023-03-01T00:18:54;102194.88;;;8.92;69.98
50250;BME280;36133;42.522;27.456;2023-03-01T00:21:20;102250.06;;;10.22;66.81
50250;BME280;36133;42.522;27.456;2023-03-01T00:23:45;102255.50;;;10.49;65.96
50250;BME280;36133;42.522;27.456;2023-03-01T00:26:15;102146.66;;;9.28;67.28
50250;BME280;36133;42.522;27.456;2023-03-01T00:28:42;102282.50;;;10.77;65.77
50250;BME280;36133;42.522;27.456;2023-03-01T00:31:13;102080.34;;;9.82;64.99
50250;BME280;36133;42.522;27.456;2023-03-01T00:33:40;102077.63;;;9.45;64.85
50250;BME280;36133;42.522;27.456;2023-03-01T00:36:06;102241.81;;;10.51;65.31
50250;BME280;36133;42.522;27.456;2023-03-01T00:38:43;102023.81;;;9.25;64.72
50250;BME280;36133;42.522;27.456;2023-03-01T00:41:11;102208.53;;;10.33;65.82
50250;BME280;36133;42.522;27.456;2023-03-01T00:43:38;102113.94;;;10.24;63.88
50250;BME280;36133;42.522;27.456;2023-03-01T00:46:05;102101.44;;;10.23;63.71
50250;BME280;36133;42.522;27.456;2023-03-01T00:51:34;102124.19;;;9.47;65.75
50250;BME280;36133;42.522;27.456;2023-03-01T00:54:01;102140.41;;;10.11;65.56
50250;BME280;36133;42.522;27.456;2023-03-01T00:56:27;102273.63;;;10.84;64.65
50250;BME280;36133;42.522;27.456;2023-03-01T00:58:53;102202.03;;;10.25;65.63
50250;BME280;36133;42.522;27.456;2023-03-01T01:01:27;101731.91;;;7.00;66.81
50250;BME280;36133;42.522;27.456;2023-03-01T01:04:08;102255.47;;;10.12;67.65
50250;BME280;36133;42.522;27.456;2023-03-01T01:06:36;102284.16;;;10.60;66.65
50250;BME280;36133;42.522;27.456;2023-03-01T01:09:04;102266.06;;;10.70;64.49
50250;BME280;36133;42.522;27.456;2023-03-01T01:11:30;102208.66;;;9.94;67.29
50250;BME280;36133;42.522;27.456;2023-03-01T01:13:57;102177.88;;;9.87;66.13
50250;BME280;36133;42.522;27.456;2023-03-01T01:16:24;102171.34;;;9.80;66.80
50250;BME280;36133;42.522;27.456;2023-03-01T01:18:51;102118.06;;;9.91;65.67
50250;BME280;36133;42.522;27.456;2023-03-01T01:21:19;102272.50;;;10.32;66.25
50250;BME280;36133;42.522;27.456;2023-03-01T01:23:46;102253.81;;;10.39;66.65
50250;BME280;36133;42.522;27.456;2023-03-01T01:26:16;102265.84;;;10.54;66.94
50250;BME280;36133;42.522;27.456;2023-03-01T01:28:42;102094.06;;;9.61;65.93
50250;BME280;36133;42.522;27.456;2023-03-01T01:31:08;102230.59;;;10.18;66.69
50250;BME280;36133;42.522;27.456;2023-03-01T01:33:34;102106.59;;;9.43;67.06
50250;BME280;36133;42.522;27.456;2023-03-01T01:35:59;102207.50;;;10.43;65.52
50250;BME280;36133;42.522;27.456;2023-03-01T01:38:25;102074.41;;;9.68;65.50
50250;BME280;36133;42.522;27.456;2023-03-01T01:40:51;102239.09;;;10.61;65.50
50250;BME280;36133;42.522;27.456;2023-03-01T01:45:48;102207.69;;;10.77;64.08
50250;BME280;36133;42.522;27.456;2023-03-01T01:48:17;102200.25;;;10.62;64.72
50250;BME280;36133;42.522;27.456;2023-03-01T01:50:44;102277.56;;;10.72;66.06
50250;BME280;36133;42.522;27.456;2023-03-01T01:53:16;102283.44;;;10.85;65.45
50250;BME280;36133;42.522;27.456;2023-03-01T01:55:46;102277.19;;;10.85;65.38
50250;BME280;36133;42.522;27.456;2023-03-01T01:58:15;102288.91;;;11.39;64.29
50250;BME280;36133;42.522;27.456;2023-03-01T02:00:43;102281.66;;;11.39;63.76
50250;BME280;36133;42.522;27.456;2023-03-01T02:03:12;102127.19;;;9.81;65.03
50250;BME280;36133;42.522;27.456;2023-03-01T02:05:42;102289.13;;;11.10;65.23
50250;BME280;36133;42.522;27.456;2023-03-01T02:08:12;102044.25;;;9.08;66.29
50250;BME280;36133;42.522;27.456;2023-03-01T02:10:39;102289.06;;;10.74;66.65
50250;BME280;36133;42.522;27.456;2023-03-01T02:13:06;102136.69;;;9.85;66.22
50250;BME280;36133;42.522;27.456;2023-03-01T02:15:36;102135.69;;;10.13;65.42
50250;BME280;36133;42.522;27.456;2023-03-01T02:18:03;102259.06;;;10.95;64.82
50250;BME280;36133;42.522;27.456;2023-03-01T02:20:44;102083.31;;;9.51;66.23
50250;BME280;36133;42.522;27.456;2023-03-01T02:23:12;102215.03;;;10.85;65.37
50250;BME280;36133;42.522;27.456;2023-03-01T02:25:47;102142.09;;;10.12;66.10
50250;BME280;36133;42.522;27.456;2023-03-01T02:30:44;102180.44;;;10.25;65.88
50250;BME280;36133;42.522;27.456;2023-03-01T02:33:29;102252.84;;;11.30;64.29
50250;BME280;36133;42.522;27.456;2023-03-01T02:36:03;102207.63;;;11.40;63.29
50250;BME280;36133;42.522;27.456;2023-03-01T02:38:30;102114.25;;;10.21;65.14
50250;BME280;36133;42.522;27.456;2023-03-01T02:40:57;102118.78;;;10.66;63.64
50250;BME280;36133;42.522;27.456;2023-03-01T02:43:27;102267.81;;;11.25;64.95
50250;BME280;36133;42.522;27.456;2023-03-01T02:45:57;102085.63;;;10.28;64.44
50250;BME280;36133;42.522;27.456;2023-03-01T02:48:24;102256.31;;;11.05;65.50
50250;BME280;36133;42.522;27.456;2023-03-01T02:56:13;102179.75;;;10.14;67.08
50250;BME280;36133;42.522;27.456;2023-03-01T02:58:42;102244.03;;;10.38;67.04
50250;BME280;36133;42.522;27.456;2023-03-01T03:01:16;102194.41;;;9.64;68.28
50250;BME280;36133;42.522;27.456;2023-03-01T03:03:42;102188.19;;;9.91;67.33
50250;BME280;36133;42.522;27.456;2023-03-01T03:06:09;102247.94;;;10.53;66.73
50250;BME280;36133;42.522;27.456;2023-03-01T03:08:35;102176.31;;;10.49;65.63
50250;BME280;36133;42.522;27.456;2023-03-01T03:11:00;102247.66;;;10.56;66.38
50250;BME280;36133;42.522;27.456;2023-03-01T03:13:26;102249.31;;;10.84;66.28
50250;BME280;36133;42.522;27.456;2023-03-01T03:15:55;102200.66;;;10.39;66.71
50250;BME280;36133;42.522;27.456;2023-03-01T03:18:21;102103.53;;;9.28;68.57
50250;BME280;36133;42.522;27.456;2023-03-01T03:20:47;102242.91;;;9.84;69.25
50250;BME280;36133;42.522;27.456;2023-03-01T03:23:21;102180.69;;;9.29;70.07
50250;BME280;36133;42.522;27.456;2023-03-01T03:25:50;102236.03;;;10.46;67.29
50250;BME280;36133;42.522;27.456;2023-03-01T03:28:16;102209.94;;;9.90;68.62
50250;BME280;36133;42.522;27.456;2023-03-01T03:30:42;102177.59;;;9.80;68.34
50250;BME280;36133;42.522;27.456;2023-03-01T03:33:10;101998.69;;;8.30;69.35
50250;BME280;36133;42.522;27.456;2023-03-01T03:35:54;102246.16;;;9.87;69.34
50250;BME280;36133;42.522;27.456;2023-03-01T03:38:20;102173.50;;;9.66;68.31
50250;BME280;36133;42.522;27.456;2023-03-01T03:41:02;102212.53;;;9.82;68.38
50250;BME280;36133;42.522;27.456;2023-03-01T03:43:46;102256.72;;;9.71;69.35
50250;BME280;36133;42.522;27.456;2023-03-01T03:46:14;102098.88;;;9.10;68.24
50250;BME280;36133;42.522;27.456;2023-03-01T03:48:57;102226.59;;;9.85;68.77
50250;BME280;36133;42.522;27.456;2023-03-01T03:51:23;102234.59;;;9.38;69.38
50250;BME280;36133;42.522;27.456;2023-03-01T03:53:49;102204.81;;;9.11;70.26
50250;BME280;36133;42.522;27.456;2023-03-01T03:59:17;102194.19;;;9.09;69.34
50250;BME280;36133;42.522;27.456;2023-03-01T04:02:01;102254.44;;;9.66;69.32
50250;BME280;36133;42.522;27.456;2023-03-01T04:04:48;102203.97;;;8.91;70.12
50250;BME280;36133;42.522;27.456;2023-03-01T04:07:15;102088.19;;;8.22;70.98
50250;BME280;36133;42.522;27.456;2023-03-01T04:09:42;102233.03;;;9.36;69.55
50250;BME280;36133;42.522;27.456;2023-03-01T04:12:08;102236.56;;;9.07;70.66
50250;BME280;36133;42.522;27.456;2023-03-01T04:14:34;102049.06;;;7.99;70.43
50250;BME280;36133;42.522;27.456;2023-03-01T04:17:00;102038.94;;;7.72;70.84
50250;BME280;36133;42.522;27.456;2023-03-01T04:19:26;102229.09;;;9.21;70.28
50250;BME280;36133;42.522;27.456;2023-03-01T04:21:52;102040.25;;;7.87;70.83
50250;BME280;36133;42.522;27.456;2023-03-01T04:24:18;102205.78;;;8.81;70.90
50250;BME280;36133;42.522;27.456;2023-03-01T04:26:44;102110.34;;;8.45;70.19
50250;BME280;36133;42.522;27.456;2023-03-01T04:29:09;102164.25;;;8.74;69.67
50250;BME280;36133;42.522;27.456;2023-03-01T04:31:35;101947.84;;;7.28;70.81
50250;BME280;36133;42.522;27.456;2023-03-01T04:34:01;102212.03;;;9.30;69.72
50250;BME280;36133;42.522;27.456;2023-03-01T04:36:28;102214.88;;;8.99;70.21
50250;BME280;36133;42.522;27.456;2023-03-01T04:38:55;101940.28;;;7.13;70.93
50250;BME280;36133;42.522;27.456;2023-03-01T04:41:22;101998.22;;;7.36;71.01
50250;BME280;36133;42.522;27.456;2023-03-01T04:43:48;102035.47;;;7.90;70.04
50250;BME280;36133;42.522;27.456;2023-03-01T04:46:16;102188.91;;;8.69;70.79
50250;BME280;36133;42.522;27.456;2023-03-01T04:48:43;102045.38;;;7.90;71.08
50250;BME280;36133;42.522;27.456;2023-03-01T04:51:09;102152.94;;;8.99;69.29
50250;BME280;36133;42.522;27.456;2023-03-01T04:53:39;102168.50;;;8.67;70.64
50250;BME280;36133;42.522;27.456;2023-03-01T04:56:05;102105.50;;;8.29;70.11
50250;BME280;36133;42.522;27.456;2023-03-01T04:58:32;102090.81;;;8.52;69.24
50250;BME280;36133;42.522;27.456;2023-03-01T05:00:57;102030.97;;;8.20;68.83
50250;BME280;36133;42.522;27.456;2023-03-01T05:03:23;102163.28;;;8.85;69.22
50250;BME280;36133;42.522;27.456;2023-03-01T05:05:51;102200.84;;;9.25;68.09
50250;BME280;36133;42.522;27.456;2023-03-01T05:08:16;102172.50;;;9.11;67.83
50250;BME280;36133;42.522;27.456;2023-03-01T05:10:50;102234.44;;;9.30;67.58
50250;BME280;36133;42.522;27.456;2023-03-01T05:13:17;102131.78;;;8.56;67.87
50250;BME280;36133;42.522;27.456;2023-03-01T05:16:00;102208.34;;;9.31;67.89
50250;BME280;36133;42.522;27.456;2023-03-01T05:18:27;102215.31;;;9.24;68.02
50250;BME280;36133;42.522;27.456;2023-03-01T05:20:54;102209.75;;;9.54;66.83
50250;BME280;36133;42.522;27.456;2023-03-01T05:23:22;101963.47;;;7.44;67.44
50250;BME280;36133;42.522;27.456;2023-03-01T05:25:48;102184.81;;;9.04;67.39
50250;BME280;36133;42.522;27.456;2023-03-01T05:28:15;102018.38;;;8.30;66.67
50250;BME280;36133;42.522;27.456;2023-03-01T05:30:41;102145.44;;;8.34;67.89
50250;BME280;36133;42.522;27.456;2023-03-01T05:33:07;102170.78;;;8.81;67.52
50250;BME280;36133;42.522;27.456;2023-03-01T05:35:42;101768.03;;;6.67;66.59
50250;BME280;36133;42.522;27.456;2023-03-01T05:38:09;102181.13;;;9.34;65.65
50250;BME280;36133;42.522;27.456;2023-03-01T05:40:39;101987.00;;;7.71;66.81
50250;BME280;36133;42.522;27.456;2023-03-01T05:43:04;102066.44;;;8.44;66.47
50250;BME280;36133;42.522;27.456;2023-03-01T05:45:31;102223.66;;;9.30;66.89
50250;BME280;36133;42.522;27.456;2023-03-01T05:47:58;102143.56;;;9.03;66.10
50250;BME280;36133;42.522;27.456;2023-03-01T05:50:29;102220.81;;;9.32;66.58
50250;BME280;36133;42.522;27.456;2023-03-01T05:55:30;102226.06;;;9.43;66.31
50250;BME280;36133;42.522;27.456;2023-03-01T05:57:59;102229.13;;;9.87;65.19
50250;BME280;36133;42.522;27.456;2023-03-01T06:00:25;102143.50;;;9.32;64.87
50250;BME280;36133;42.522;27.456;2023-03-01T06:02:51;102238.53;;;9.73;65.66
50250;BME280;36133;42.522;27.456;2023-03-01T06:05:19;102199.78;;;10.11;64.33
50250;BME280;36133;42.522;27.456;2023-03-01T06:07:44;102193.28;;;9.57;65.03
50250;BME280;36133;42.522;27.456;2023-03-01T06:10:11;102231.19;;;10.03;64.50
50250;BME280;36133;42.522;27.456;2023-03-01T06:12:38;102208.59;;;9.66;65.07
50250;BME280;36133;42.522;27.456;2023-03-01T06:15:05;102116.00;;;9.29;64.13
50250;BME280;36133;42.522;27.456;2023-03-01T06:17:34;102254.53;;;9.94;64.66
50250;BME280;36133;42.522;27.456;2023-03-01T06:20:08;102158.97;;;9.30;64.50
50250;BME280;36133;42.522;27.456;2023-03-01T06:22:34;102060.72;;;8.96;63.62
50250;BME280;36133;42.522;27.456;2023-03-01T06:24:59;102267.66;;;10.26;64.08
50250;BME280;36133;42.522;27.456;2023-03-01T06:27:25;102227.44;;;10.60;62.53
50250;BME280;36133;42.522;27.456;2023-03-01T06:29:50;102125.09;;;9.08;64.52
50250;BME280;36133;42.522;27.456;2023-03-01T06:32:16;102111.16;;;9.32;63.39
50250;BME280;36133;42.522;27.456;2023-03-01T06:34:41;102258.03;;;10.23;63.20
50250;BME280;36133;42.522;27.456;2023-03-01T06:37:07;102097.44;;;9.73;62.31
50250;BME280;36133;42.522;27.456;2023-03-01T06:39:33;102187.47;;;10.36;62.06
50250;BME280;36133;42.522;27.456;2023-03-01T06:41:58;102252.63;;;10.51;63.09
50250;BME280;36133;42.522;27.456;2023-03-01T06:44:24;102226.09;;;9.99;63.64
50250;BME280;36133;42.522;27.456;2023-03-01T06:46:50;102245.06;;;10.17;63.67
50250;BME280;36133;42.522;27.456;2023-03-01T06:49:15;102239.16;;;10.41;63.15
50250;BME280;36133;42.522;27.456;2023-03-01T06:51:43;102188.16;;;10.38;62.90
50250;BME280;36133;42.522;27.456;2023-03-01T06:54:08;102049.66;;;9.08;64.45
50250;BME280;36133;42.522;27.456;2023-03-01T06:56:34;102168.69;;;10.44;61.99
50250;BME280;36133;42.522;27.456;2023-03-01T06:59:00;102140.97;;;9.78;63.03
50250;BME280;36133;42.522;27.456;2023-03-01T07:01:28;102041.16;;;9.03;63.40
50250;BME280;36133;42.522;27.456;2023-03-01T07:03:53;102199.50;;;10.05;63.32
50250;BME280;36133;42.522;27.456;2023-03-01T07:06:19;102173.47;;;9.86;63.62
50250;BME280;36133;42.522;27.456;2023-03-01T07:08:45;102216.16;;;10.65;62.46
50250;BME280;36133;42.522;27.456;2023-03-01T07:11:10;102057.41;;;9.68;62.52
50250;BME280;36133;42.522;27.456;2023-03-01T07:13:36;102103.19;;;9.50;63.35
50250;BME280;36133;42.522;27.456;2023-03-01T07:16:01;102250.53;;;10.72;62.66
50250;BME280;36133;42.522;27.456;2023-03-01T07:18:26;102223.81;;;10.69;62.38
50250;BME280;36133;42.522;27.456;2023-03-01T07:20:52;102124.03;;;9.95;62.66
50250;BME280;36133;42.522;27.456;2023-03-01T07:23:18;102193.03;;;10.35;62.22
50250;BME280;36133;42.522;27.456;2023-03-01T07:25:44;102195.09;;;10.13;62.73
50250;BME280;36133;42.522;27.456;2023-03-01T07:28:09;101991.06;;;8.64;63.94
50250;BME280;36133;42.522;27.456;2023-03-01T07:30:35;102079.28;;;9.08;63.76
50250;BME280;36133;42.522;27.456;2023-03-01T07:33:00;102263.53;;;10.32;63.82
50250;BME280;36133;42.522;27.456;2023-03-01T07:35:26;102214.16;;;10.39;62.29
50250;BME280;36133;42.522;27.456;2023-03-01T07:37:52;102251.94;;;10.02;64.46
50250;BME280;36133;42.522;27.456;2023-03-01T07:40:18;102195.44;;;10.83;61.72
50250;BME280;36133;42.522;27.456;2023-03-01T07:42:44;102228.09;;;10.44;63.60
50250;BME280;36133;42.522;27.456;2023-03-01T07:45:10;102185.03;;;10.43;62.54
50250;BME280;36133;42.522;27.456;2023-03-01T07:47:36;102237.69;;;10.56;62.78
50250;BME280;36133;42.522;27.456;2023-03-01T07:50:01;102219.34;;;10.33;63.14
50250;BME280;36133;42.522;27.456;2023-03-01T07:52:28;102082.97;;;10.19;62.27
50250;BME280;36133;42.522;27.456;2023-03-01T07:54:53;102229.66;;;11.10;61.85
50250;BME280;36133;42.522;27.456;2023-03-01T07:57:19;102147.88;;;9.90;63.57
50250;BME280;36133;42.522;27.456;2023-03-01T07:59:44;102231.41;;;11.01;61.97
50250;BME280;36133;42.522;27.456;2023-03-01T08:02:11;102214.50;;;10.81;61.97
50250;BME280;36133;42.522;27.456;2023-03-01T08:04:36;102174.03;;;10.54;62.00
50250;BME280;36133;42.522;27.456;2023-03-01T08:07:04;102065.75;;;10.02;61.79
50250;BME280;36133;42.522;27.456;2023-03-01T08:09:31;102091.84;;;9.84;61.74
50250;BME280;36133;42.522;27.456;2023-03-01T08:11:57;101907.59;;;8.64;62.86
50250;BME280;36133;42.522;27.456;2023-03-01T08:14:26;102236.75;;;11.11;61.79
50250;BME280;36133;42.522;27.456;2023-03-01T08:16:51;102188.16;;;10.38;62.30
50250;BME280;36133;42.522;27.456;2023-03-01T08:19:17;102243.63;;;11.05;61.72
50250;BME280;36133;42.522;27.456;2023-03-01T08:21:42;102149.06;;;9.78;63.11
50250;BME280;36133;42.522;27.456;2023-03-01T08:24:08;102197.44;;;10.81;62.08
50250;BME280;36133;42.522;27.456;2023-03-01T08:26:35;102060.13;;;10.13;62.11
50250;BME280;36133;42.522;27.456;2023-03-01T08:29:02;102236.75;;;11.90;60.04
50250;BME280;36133;42.522;27.456;2023-03-01T08:31:33;102225.31;;;11.53;60.35
50250;BME280;36133;42.522;27.456;2023-03-01T08:34:04;102193.88;;;11.34;60.27
50250;BME280;36133;42.522;27.456;2023-03-01T08:36:34;102002.75;;;9.93;60.39
50250;BME280;36133;42.522;27.456;2023-03-01T08:39:01;102051.59;;;9.90;61.73
50250;BME280;36133;42.522;27.456;2023-03-01T08:41:27;101936.59;;;9.17;61.74
50250;BME280;36133;42.522;27.456;2023-03-01T08:43:53;102052.00;;;10.76;59.37
50250;BME280;36133;42.522;27.456;2023-03-01T08:46:25;102126.34;;;11.24;59.43
50250;BME280;36133;42.522;27.456;2023-03-01T08:48:50;102193.03;;;10.98;60.69
50250;BME280;36133;42.522;27.456;2023-03-01T08:51:18;102195.53;;;11.53;59.29
50250;BME280;36133;42.522;27.456;2023-03-01T08:53:44;102217.06;;;11.80;58.45
50250;BME280;36133;42.522;27.456;2023-03-01T08:56:10;101975.53;;;9.87;59.88
50250;BME280;36133;42.522;27.456;2023-03-01T08:58:36;102181.44;;;11.23;59.64
50250;BME280;36133;42.522;27.456;2023-03-01T09:01:10;102120.91;;;11.16;58.72
50250;BME280;36133;42.522;27.456;2023-03-01T09:03:36;102218.91;;;12.06;57.58
50250;BME280;36133;42.522;27.456;2023-03-01T09:06:04;102216.22;;;11.62;58.29
50250;BME280;36133;42.522;27.456;2023-03-01T09:08:30;102248.31;;;12.60;56.61
50250;BME280;36133;42.522;27.456;2023-03-01T09:10:56;102074.78;;;11.18;56.78
50250;BME280;36133;42.522;27.456;2023-03-01T09:13:22;102015.97;;;10.50;57.42
50250;BME280;36133;42.522;27.456;2023-03-01T09:15:52;102081.47;;;10.88;57.79
50250;BME280;36133;42.522;27.456;2023-03-01T09:18:19;102210.22;;;11.50;58.04
50250;BME280;36133;42.522;27.456;2023-03-01T09:20:44;102218.97;;;11.26;58.47
50250;BME280;36133;42.522;27.456;2023-03-01T09:23:10;102221.59;;;11.54;58.22
50250;BME280;36133;42.522;27.456;2023-03-01T09:25:36;102220.88;;;11.95;57.39
50250;BME280;36133;42.522;27.456;2023-03-01T09:28:01;102235.31;;;12.04;57.89
50250;BME280;36133;42.522;27.456;2023-03-01T09:30:27;101990.75;;;10.23;57.88
50250;BME280;36133;42.522;27.456;2023-03-01T09:32:52;101981.34;;;10.45;57.38
50250;BME280;36133;42.522;27.456;2023-03-01T09:35:18;102104.38;;;11.45;56.68
50250;BME280;36133;42.522;27.456;2023-03-01T09:37:45;102191.59;;;12.25;56.86
50250;BME280;36133;42.522;27.456;2023-03-01T09:40:16;102013.00;;;11.65;55.36
50250;BME280;36133;42.522;27.456;2023-03-01T09:42:55;101928.69;;;10.67;55.70
50250;BME280;36133;42.522;27.456;2023-03-01T09:45:30;102148.72;;;11.52;57.09
50250;BME280;36133;42.522;27.456;2023-03-01T09:47:58;101912.06;;;9.65;58.00
50250;BME280;36133;42.522;27.456;2023-03-01T09:50:26;102224.69;;;11.85;57.45
50250;BME280;36133;42.522;27.456;2023-03-01T09:53:13;102006.25;;;11.35;55.25
50250;BME280;36133;42.522;27.456;2023-03-01T09:55:53;101781.16;;;10.40;54.82
50250;BME280;36133;42.522;27.456;2023-03-01T09:58:31;102217.38;;;12.87;54.86
50250;BME280;36133;42.522;27.456;2023-03-01T10:07:02;101690.03;;;8.49;57.23
50250;BME280;36133;42.522;27.456;2023-03-01T10:09:34;102050.53;;;10.82;57.87
50250;BME280;36133;42.522;27.456;2023-03-01T10:12:01;102107.28;;;11.52;56.88
50250;BME280;36133;42.522;27.456;2023-03-01T10:15:33;102185.47;;;12.15;55.96
50250;BME280;36133;42.522;27.456;2023-03-01T10:17:46;102008.84;;;11.44;54.86
50250;BME280;36133;42.522;27.456;2023-03-01T10:20:20;102077.66;;;11.16;56.14
50250;BME280;36133;42.522;27.456;2023-03-01T10:22:47;101784.66;;;10.33;53.87
50250;BME280;36133;42.522;27.456;2023-03-01T10:25:24;102160.72;;;12.52;53.97
50250;BME280;36133;42.522;27.456;2023-03-01T10:28:02;102032.25;;;11.62;54.22
50250;BME280;36133;42.522;27.456;2023-03-01T10:30:36;101812.69;;;10.32;54.09
50250;BME280;36133;42.522;27.456;2023-03-01T10:33:27;101862.19;;;10.74;53.56
50250;BME280;36133;42.522;27.456;2023-03-01T10:35:54;101776.22;;;9.84;53.85
50250;BME280;36133;42.522;27.456;2023-03-01T10:38:20;101779.56;;;10.64;52.58
50250;BME280;36133;42.522;27.456;2023-03-01T10:40:55;101983.41;;;10.95;53.98
50250;BME280;36133;42.522;27.456;2023-03-01T10:43:26;101652.09;;;9.32;53.68
50250;BME280;36133;42.522;27.456;2023-03-01T10:45:52;101622.88;;;9.01;53.37
50250;BME280;36133;42.522;27.456;2023-03-01T10:48:25;101897.56;;;11.23;52.31
50250;BME280;36133;42.522;27.456;2023-03-01T10:53:32;102187.59;;;12.45;53.31
50250;BME280;36133;42.522;27.456;2023-03-01T10:56:00;102131.72;;;12.44;53.16
50250;BME280;36133;42.522;27.456;2023-03-01T10:58:27;101996.28;;;12.28;51.98
50250;BME280;36133;42.522;27.456;2023-03-01T11:00:56;102111.47;;;12.65;52.46
50250;BME280;36133;42.522;27.456;2023-03-01T11:03:25;102090.44;;;12.58;52.70
50250;BME280;36133;42.522;27.456;2023-03-01T11:06:00;102016.25;;;12.43;52.17
50250;BME280;36133;42.522;27.456;2023-03-01T11:11:12;102172.34;;;13.52;52.49
50250;BME280;36133;42.522;27.456;2023-03-01T11:13:50;102072.81;;;12.38;52.98
50250;BME280;36133;42.522;27.456;2023-03-01T11:16:27;102131.00;;;12.34;54.60
50250;BME280;36133;42.522;27.456;2023-03-01T11:19:04;102115.28;;;11.87;54.65
50250;BME280;36133;42.522;27.456;2023-03-01T11:24:10;102127.59;;;11.30;56.61
50250;BME280;36133;42.522;27.456;2023-03-01T11:26:41;101980.81;;;10.42;56.16
50250;BME280;36133;42.522;27.456;2023-03-01T11:29:18;102133.88;;;11.38;56.17
50250;BME280;36133;42.522;27.456;2023-03-01T11:31:47;102150.94;;;11.13;57.14
50250;BME280;36133;42.522;27.456;2023-03-01T11:34:28;102103.28;;;11.12;57.12
50250;BME280;36133;42.522;27.456;2023-03-01T11:37:01;102043.22;;;11.26;56.06
50250;BME280;36133;42.522;27.456;2023-03-01T11:39:53;102151.34;;;10.82;57.23
50250;BME280;36133;42.522;27.456;2023-03-01T11:42:56;102152.19;;;11.70;56.46
50250;BME280;36133;42.522;27.456;2023-03-01T11:51:09;102135.69;;;12.90;53.57
50250;BME280;36133;42.522;27.456;2023-03-01T12:07:59;102123.41;;;12.29;53.34
50250;BME280;36133;42.522;27.456;2023-03-01T12:10:52;102084.38;;;11.64;53.55
50250;BME280;36133;42.522;27.456;2023-03-01T12:22:59;101936.13;;;10.99;53.34
50250;BME280;36133;42.522;27.456;2023-03-01T12:25:10;102091.03;;;11.26;55.31
50250;BME280;36133;42.522;27.456;2023-03-01T12:28:01;101989.28;;;11.17;54.08
50250;BME280;36133;42.522;27.456;2023-03-01T12:38:45;102122.72;;;12.27;51.57
50250;BME280;36133;42.522;27.456;2023-03-01T12:41:46;102120.03;;;11.93;52.15
50250;BME280;36133;42.522;27.456;2023-03-01T12:49:54;102138.47;;;11.64;53.22
50250;BME280;36133;42.522;27.456;2023-03-01T12:52:39;102005.69;;;10.71;53.18
50250;BME280;36133;42.522;27.456;2023-03-01T12:55:17;102120.84;;;11.86;52.26
50250;BME280;36133;42.522;27.456;2023-03-01T12:57:53;101990.56;;;11.04;52.15
50250;BME280;36133;42.522;27.456;2023-03-01T13:00:27;102132.06;;;11.99;51.59
50250;BME280;36133;42.522;27.456;2023-03-01T13:05:28;102132.09;;;12.49;50.68
50250;BME280;36133;42.522;27.456;2023-03-01T13:11:21;101977.97;;;11.21;52.12
50250;BME280;36133;42.522;27.456;2023-03-01T13:13:39;102078.34;;;11.00;53.75
50250;BME280;36133;42.522;27.456;2023-03-01T13:19:21;102128.44;;;11.82;53.16
50250;BME280;36133;42.522;27.456;2023-03-01T13:21:49;102106.66;;;11.14;54.55
50250;BME280;36133;42.522;27.456;2023-03-01T13:24:25;101980.25;;;10.38;54.78
50250;BME280;36133;42.522;27.456;2023-03-01T13:32:27;101720.56;;;8.21;56.13
50250;BME280;36133;42.522;27.456;2023-03-01T13:35:44;101988.94;;;10.42;55.28
50250;BME280;36133;42.522;27.456;2023-03-01T13:37:46;101885.56;;;9.60;55.88
50250;BME280;36133;42.522;27.456;2023-03-01T13:42:46;102124.66;;;11.49;54.99
50250;BME280;36133;42.522;27.456;2023-03-01T13:47:45;102123.66;;;12.02;53.73
50250;BME280;36133;42.522;27.456;2023-03-01T13:50:23;102036.09;;;10.73;55.53
50250;BME280;36133;42.522;27.456;2023-03-01T13:53:05;102085.84;;;11.32;54.73
50250;BME280;36133;42.522;27.456;2023-03-01T13:55:41;102086.38;;;10.66;55.73
50250;BME280;36133;42.522;27.456;2023-03-01T13:58:28;102123.69;;;11.06;54.92
50250;BME280;36133;42.522;27.456;2023-03-01T14:01:00;102002.09;;;10.45;54.47
50250;BME280;36133;42.522;27.456;2023-03-01T14:03:26;102073.28;;;10.97;54.31
50250;BME280;36133;42.522;27.456;2023-03-01T14:06:04;102065.56;;;10.84;54.31
50250;BME280;36133;42.522;27.456;2023-03-01T14:08:35;102127.00;;;10.47;55.92
50250;BME280;36133;42.522;27.456;2023-03-01T14:20:07;102138.56;;;10.39;55.71
50250;BME280;36133;42.522;27.456;2023-03-01T14:22:35;101940.63;;;10.39;53.08
50250;BME280;36133;42.522;27.456;2023-03-01T14:25:05;102050.97;;;10.77;53.59
50250;BME280;36133;42.522;27.456;2023-03-01T14:30:43;102123.22;;;11.11;54.36
50250;BME280;36133;42.522;27.456;2023-03-01T14:33:32;102040.44;;;10.31;54.98
50250;BME280;36133;42.522;27.456;2023-03-01T14:36:01;101893.13;;;9.29;55.61
50250;BME280;36133;42.522;27.456;2023-03-01T14:38:44;102104.63;;;11.08;54.16
50250;BME280;36133;42.522;27.456;2023-03-01T14:41:23;102115.59;;;11.06;53.85
50250;BME280;36133;42.522;27.456;2023-03-01T14:44:17;102092.34;;;10.24;55.49
50250;BME280;36133;42.522;27.456;2023-03-01T14:46:44;101873.47;;;8.92;55.69